Tiempo atmosférico en la estación meteorológica de Daroca, Zaragoza (779 m.)



Fecha
DESCASC
Temp. máxima en grados centígrados (hora)
DESCASC
Temp. mínima en grados centígrados (hora)
DESCASC
Temp. media en grados centígrados
DESCASC
Racha de viento máxima en m/sg (hora)
DESCASC
Velocidad máxima media en intervalos de 10 minutos(hora)
DESCASC
Precipitaciones diarias en mm
DESCASC
Precipitaciones de 00:00 a 06:00 en mm
DESCASC
Precipitaciones de 06:00 a 12:00 en mm
DESCASC
Precipitaciones de 12:00 a 18:00 en mm
DESCASC
Precipitaciones de 18:00 a 24:00 en mm
DESCASC
13-06-2019 26.5 (16:50) 12.4 (04:20) 19.4 8.06 (11:50) 3.33 (12:40) 0 0 0 0 0
12-06-2019 23.3 (16:50) 2.3 (06:50) 12.8 10 (19:10) 4.17 (19:10) 0 0 0 0 0
11-06-2019 -- (--) -- (--) -- 8.61 (15:30) 4.17 (15:30) 3 0 2.4 0.4 0.2
10-06-2019 22.2 (14:40) 10.8 (04:40) 16.5 10.28 (18:10) 4.44 (16:50) 0 0 0 0 0
09-06-2019 28 (15:10) 13.5 (00:00) 20.8 9.17 (17:10) 4.17 (15:40) 0 0 0 0 0
08-06-2019 27.4 (16:50) 5.3 (00:00) 16.3 12.22 (14:40) 4.44 (14:00) 0 0 0 0 0
07-06-2019 21.4 (18:40) 8.5 (00:00) 14.9 8.89 (10:20) 4.72 (06:00) 0.6 0 0.6 0 0
06-06-2019 25 (19:00) 5.4 (00:00) 15.2 10.83 (20:00) 5.56 (18:30) 0 0 0 0 0
05-06-2019 19 (18:40) 10.2 (00:00) 14.6 15.28 (12:40) 5.83 (12:20) 1.2 0 0.8 0.4 0
04-06-2019 30.6 (15:30) 16.8 (00:00) 23.7 11.67 (14:50) 6.67 (13:30) 0 0 0 0 0
03-06-2019 32.1 (16:00) 17.1 (00:00) 24.6 11.11 (15:50) 5.28 (16:20) 0 0 0 0 0
02-06-2019 32.4 (16:40) 14.3 (00:00) 23.4 6.39 (16:00) 2.78 (14:40) 0 0 0 0 0
01-06-2019 31.2 (17:30) 11.8 (00:00) 21.5 6.39 (18:10) 2.78 (19:30) 0 0 0 0 0
31-05-2019 29.1 (16:10) 6.6 (00:00) 17.9 6.67 (18:20) 3.06 (17:10) 0 0 0 0 0
30-05-2019 26 (17:20) 5.9 (00:00) 16 7.78 (16:10) 3.33 (14:00) 0 0 0 0 0
29-05-2019 20.3 (17:20) 5 (00:00) 12.6 11.67 (12:30) 4.72 (12:30) 0 0 0 0 0
28-05-2019 18.9 (16:10) 7.3 (00:00) 13.1 13.06 (15:10) 4.72 (18:10) 0 0 0 0 0
27-05-2019 23.3 (15:20) 5.4 (00:00) 14.3 10.83 (17:50) 5.28 (17:50) 0 0 0 0 0
26-05-2019 19.5 (16:40) 7.3 (00:00) 13.4 9.17 (17:00) 4.44 (17:30) 0 0 0 0 0
25-05-2019 18.6 (17:10) 10.2 (00:00) 14.4 10.56 (17:10) 4.44 (16:30) 0 0 0 0 0
24-05-2019 16.4 (17:10) 10.4 (00:00) 13.4 11.39 (18:10) 4.17 (18:00) 5.8 0 5.8 0 0
23-05-2019 25.4 (14:10) 8.6 (00:00) 17 8.89 (18:40) 4.17 (18:40) 0.4 0 0 0 0.4
22-05-2019 25.4 (17:40) 5 (00:00) 15.2 7.22 (16:40) 3.33 (18:10) 0 0 0 0 0
21-05-2019 20.9 (17:00) 4.3 (06:50) 12.6 7.5 (16:40) 3.06 (16:40) 0 0 0 0 0
20-05-2019 20.4 (17:30) 2 (07:00) 11.2 7.22 (18:30) 3.61 (19:50) 0 0 0 0 0
19-05-2019 14.3 (15:00) 3.6 (00:00) 9 8.61 (13:10) 3.89 (13:20) 2.6 0 0 2.6 0
18-05-2019 15.1 (16:40) 5.2 (00:00) 10.2 10 (17:20) 4.17 (14:00) 1.6 0 0.6 0 1
17-05-2019 14.3 (00:00) 5.8 (00:00) 10.1 18.89 (01:50) 6.39 (01:50) 19.6 11.2 8 0.4 0

Gráficas

Temp. máximas Temp. mínimas Temp. medias Precipitaciones Rachas de viento máximas Velocidades máximas media en intervalos de 10 minutos

Datos horarios

Fecha y hora oficial Temperatura (ºC) Velocidad del viento (km/h) Dirección del viento Racha (km/h) Dirección de racha Precipitación (mm) Presión (hPa) Tendencia (hPa) Humedad (%)
2019-06-15 23:00:00 17.1 2 Nordeste 14 Este 0 -- -- 46
2019-06-15 22:00:00 18.7 11 Nordeste 23 Norte 0 -- -- 42
2019-06-15 21:00:00 20.8 11 Nordeste 27 Nordeste 0 -- -- 37
2019-06-15 20:00:00 23.5 11 Nordeste 23 Nordeste 0 -- -- 32
2019-06-15 19:00:00 25.7 6 Sudoeste 22 Sudoeste 0 -- -- 22
2019-06-15 18:00:00 25.4 6 Noroeste 26 Oeste 0 -- -- 23
2019-06-15 17:00:00 24.7 10 Oeste 27 Oeste 0 -- -- 24
2019-06-15 16:00:00 23.9 6 Nordeste 24 Oeste 0 -- -- 25
2019-06-15 15:00:00 22.7 8 Oeste 24 Oeste 0 -- -- 28
2019-06-15 14:00:00 21.5 8 Oeste 31 Oeste 0 -- -- 32
2019-06-15 13:00:00 20.6 12 Sudoeste 23 Sudoeste 0 -- -- 35
2019-06-15 12:00:00 19.2 7 Sudoeste 20 Oeste 0 -- -- 39
2019-06-15 11:00:00 17.6 10 Sudoeste 19 Sudoeste 0 -- -- 44
2019-06-15 10:00:00 16.2 6 Sudoeste 24 Oeste 0 -- -- 49
2019-06-15 09:00:00 14.4 9 Oeste 18 Sudoeste 0 -- -- 49
2019-06-15 08:00:00 11 5 Oeste 9 Oeste 0 -- -- 57
2019-06-15 07:00:00 8.9 0 Calma 8 Nordeste 0 -- -- 64
2019-06-15 06:00:00 10 3 Nordeste 12 Este 0 -- -- 59
2019-06-15 05:00:00 11.3 2 Este 6 Este -- -- -- 55
2019-06-15 04:00:00 12.4 2 Este 5 Nordeste 0 -- -- 50
2019-06-15 03:00:00 13.1 3 Norte 10 Este 0 -- -- 45
2019-06-15 02:00:00 15 0 Calma 11 Sudoeste 0 -- -- 38
2019-06-15 01:00:00 17.6 7 Sudoeste 14 Oeste 0 -- -- 31
2019-06-15 00:00:00 15.9 3 Este 6 Nordeste 0 -- -- 38
2019-06-14 23:00:00 18.3 3 Este 19 Sudoeste 0 -- -- 36
2019-06-14 22:00:00 21.8 13 Sudoeste 29 Sudoeste 0 -- -- 25
2019-06-14 21:00:00 24.1 12 Sudoeste 33 Sudoeste 0 -- -- 23
2019-06-14 20:00:00 25.7 18 Oeste 33 Sudoeste 0 -- -- 19
2019-06-14 19:00:00 26.5 19 Oeste 35 Sudoeste 0 -- -- 21
2019-06-14 18:00:00 26.4 19 Oeste 40 Sudoeste 0 -- -- 24
2019-06-14 17:00:00 26.7 18 Oeste 37 Oeste 0 -- -- 22
2019-06-14 16:00:00 26.1 18 Oeste 40 Oeste 0 -- -- 25
2019-06-14 15:00:00 25.2 15 Oeste 33 Sudoeste 0 -- -- 28
2019-06-14 14:00:00 23.4 6 Oeste 15 Noroeste 0.2 -- -- 44
2019-06-14 13:00:00 20.1 3 Oeste 10 Sudeste 0 -- -- 65
2019-06-14 12:00:00 16.4 3 Norte 9 Nordeste 0.2 -- -- 86
2019-06-14 11:00:00 15.2 0 Calma 23 Oeste 1 -- -- 87
2019-06-14 10:00:00 15.8 6 Oeste 10 Oeste 0 -- -- 74
2019-06-14 09:00:00 15 4 Oeste 7 Sudoeste 0 -- -- 75
2019-06-14 08:00:00 13.4 2 Nordeste 7 Nordeste 0 -- -- 65
2019-06-14 07:00:00 13 2 Este 7 Nordeste 0 -- -- 66
2019-06-14 06:00:00 13.7 0 Calma 6 Nordeste 0 -- -- 75
2019-06-14 05:00:00 14.5 3 Nordeste 9 Norte 0 -- -- 75
2019-06-14 04:00:00 16.4 3 Nordeste 10 Sudeste 0 -- -- 70
2019-06-14 03:00:00 17.4 3 Este 12 Sur 0 -- -- 66
2019-06-14 02:00:00 17.8 2 Este 9 Este 0 -- -- 64
2019-06-14 01:00:00 18.1 3 Este 19 Sur 0 -- -- 62
2019-06-14 00:00:00 18.9 5 Nordeste 17 Sudeste 0 -- -- 59
2019-06-13 23:00:00 19.8 6 Nordeste 13 Nordeste 0 -- -- 53
2019-06-13 22:00:00 21.6 2 Nordeste 13 Este 0 -- -- 46
2019-06-13 21:00:00 23.2 5 Este 15 Sudeste 0 -- -- 41
2019-06-13 20:00:00 24.7 4 Sudeste 14 Norte 0 -- -- 35
2019-06-13 19:00:00 25.1 2 Este 13 Sur 0 -- -- 33
2019-06-13 18:00:00 26 4 Sur 22 Sudeste 0 -- -- 32
2019-06-13 17:00:00 25.9 6 Sur 22 Sudoeste 0 -- -- 33
2019-06-13 16:00:00 25.6 9 Sudeste 24 Sudeste 0 -- -- 33
2019-06-13 15:00:00 24.4 9 Este 28 Sur 0 -- -- 37
2019-06-13 14:00:00 23.5 8 Este 25 Sudeste 0 -- -- 41
2019-06-13 13:00:00 23.5 9 Sudeste 28 Este 0 -- -- 41
2019-06-13 12:00:00 21.8 9 Sur 29 Sur 0 -- -- 46
2019-06-13 11:00:00 20.6 6 Sur 24 Sudeste 0 -- -- 51
2019-06-13 10:00:00 19.3 5 Norte 24 Sudeste 0 -- -- 56
2019-06-13 09:00:00 16.9 7 Norte 21 Oeste 0 -- -- 64
2019-06-13 08:00:00 14.6 7 Sudeste 22 Sudeste 0 -- -- 69
2019-06-13 07:00:00 13.1 7 Sur 20 Sur 0 -- -- 72
2019-06-13 06:00:00 12.8 6 Oeste 17 Oeste 0 -- -- 71
2019-06-13 05:00:00 12.7 5 Norte 16 Sur 0 -- -- 69
2019-06-13 04:00:00 12.5 6 Oeste 21 Sudeste 0 -- -- 65
2019-06-13 03:00:00 12.8 4 Norte 22 Noroeste 0 -- -- 56
2019-06-13 02:00:00 13.7 6 Sudoeste 23 Sudeste 0 -- -- 55
2019-06-13 01:00:00 14.4 7 Sudeste 27 Sudeste 0 -- -- 54
2019-06-13 00:00:00 14.4 2 Noroeste 13 Este 0 -- -- 57
2019-06-12 23:00:00 15.2 3 Nordeste 15 Este 0 -- -- 52
2019-06-12 22:00:00 16.9 9 Este 25 Este 0 -- -- 40
2019-06-12 21:00:00 18.6 9 Este 25 Nordeste 0 -- -- 33
2019-06-12 20:00:00 20.1 10 Nordeste 36 Nordeste 0 -- -- 31
2019-06-12 19:00:00 21.2 12 Nordeste 29 Nordeste 0 -- -- 30
2019-06-12 18:00:00 22.6 5 Norte 13 Noroeste 0 -- -- 24
2019-06-12 17:00:00 22.5 4 Sur 13 Sudoeste 0 -- -- 24
2019-06-12 16:00:00 21.5 6 Oeste 13 Oeste 0 -- -- 26
2019-06-12 15:00:00 19.5 5 Sudeste 20 Sudoeste 0 -- -- 29
2019-06-12 14:00:00 19.3 6 Este 18 Sudoeste 0 -- -- 34
2019-06-12 13:00:00 18 5 Norte 16 Oeste 0 -- -- 35
2019-06-12 12:00:00 17.3 4 Este 10 Este 0 -- -- 41
2019-06-12 11:00:00 14.5 3 Oeste 10 Sur 0 -- -- 50
2019-06-12 10:00:00 11.9 3 Sudeste 11 Sudoeste 0 -- -- 61
2019-06-12 09:00:00 8.4 2 Sur 7 Sudoeste -- -- -- 74
2019-06-12 08:00:00 4.7 2 Nordeste 7 Nordeste 0 -- -- 86
2019-06-12 07:00:00 2.3 2 Nordeste 5 Nordeste 0 -- -- 90
2019-06-12 06:00:00 2.7 0 Calma 6 Este 0 -- -- 89
2019-06-12 05:00:00 3.1 0 Calma 6 Nordeste 0 -- -- 89
2019-06-12 04:00:00 3.7 0 Calma 5 Nordeste 0 -- -- 88
2019-06-12 03:00:00 4.4 0 Calma 8 Nordeste 0 -- -- 87
2019-06-12 02:00:00 5.3 4 Nordeste 8 Nordeste 0 -- -- 85
2019-06-12 01:00:00 6.3 0 Calma 7 Este 0 -- -- 82
2019-06-12 00:00:00 7.9 0 Calma 6 Nordeste 0 -- -- 77
2019-06-11 23:00:00 9.5 0 Calma 11 Nordeste 0 -- -- 70
2019-06-11 22:00:00 11.1 8 Nordeste 14 Nordeste 0.2 -- -- 60
2019-06-11 21:00:00 13 6 Nordeste 12 Norte 0 -- -- 53
2019-06-11 20:00:00 14.7 0 Calma 10 Nordeste 0 -- -- 54
2019-06-11 19:00:00 14.8 4 Sudeste 12 Sur 0 -- -- 53
2019-06-11 18:00:00 13.1 3 Sudoeste 12 Sudoeste 0 -- -- 64
2019-06-11 17:00:00 10.5 5 Sudoeste 18 Sudoeste 0.2 -- -- 76
2019-06-11 16:00:00 10.6 7 Oeste 31 Noroeste 0.2 -- -- 75
2019-06-11 15:00:00 12.5 4 Nordeste 19 Norte 0 -- -- 66
2019-06-11 14:00:00 11.4 6 Nordeste 17 Este 0 -- -- 68
2019-06-11 13:00:00 9.4 5 Norte 16 Norte 0 -- -- 78
2019-06-11 12:00:00 8.9 4 Norte 14 Nordeste 0.2 -- -- 85
2019-06-11 11:00:00 8.8 4 Norte 9 Norte 0.2 -- -- 84
2019-06-11 10:00:00 8.5 4 Norte 9 Nordeste 1.4 -- -- 84
2019-06-11 09:00:00 8.6 4 Norte 17 Nordeste 0.6 -- -- 83
2019-06-11 08:00:00 9.2 6 Norte 16 Este 0 -- -- 71
2019-06-11 07:00:00 9.3 6 Nordeste 14 Nordeste 0 -- -- 71
2019-06-11 06:00:00 9.8 6 Nordeste 15 Nordeste 0 -- -- 64
2019-06-11 05:00:00 10.2 8 Nordeste 13 Este -- -- -- 60
2019-06-11 04:00:00 10.5 4 Norte 17 Norte 0 -- -- 60
2019-06-11 03:00:00 10.7 6 Nordeste 15 Este 0 -- -- 62
2019-06-11 02:00:00 11.1 5 Nordeste 15 Norte 0 -- -- 59
2019-06-11 01:00:00 11.1 4 Nordeste 9 Nordeste -- -- -- 61
2019-06-11 00:00:00 11 0 Calma 16 Nordeste 0 -- -- 62
2019-06-10 23:00:00 12.1 4 Nordeste 18 Nordeste 0 -- -- 58
2019-06-10 22:00:00 13.8 9 Nordeste 21 Nordeste 0 -- -- 54
2019-06-10 21:00:00 15.7 10 Nordeste 28 Nordeste 0 -- -- 49
2019-06-10 20:00:00 16.8 14 Nordeste 28 Este 0 -- -- 47
2019-06-10 19:00:00 19 13 Nordeste 37 Norte 0 -- -- 42
2019-06-10 18:00:00 20.3 13 Nordeste 30 Nordeste 0 -- -- 41
2019-06-10 17:00:00 20.5 13 Nordeste 35 Norte 0 -- -- 41
2019-06-10 16:00:00 21.8 12 Nordeste 28 Nordeste 0 -- -- 39
2019-06-10 15:00:00 21.6 7 Este 21 Noroeste 0 -- -- 41
2019-06-10 14:00:00 21.3 7 Noroeste 25 Oeste 0 -- -- 36
2019-06-10 13:00:00 19.6 9 Oeste 24 Sudoeste 0 -- -- 46
2019-06-10 12:00:00 18.2 8 Noroeste 23 Oeste 0 -- -- 51
2019-06-10 11:00:00 16.5 10 Sudoeste 19 Sudoeste 0 -- -- 58
2019-06-10 10:00:00 14.3 7 Oeste 16 Oeste 0 -- -- 66
2019-06-10 09:00:00 12.9 3 Nordeste 10 Nordeste -- -- -- 73
2019-06-10 08:00:00 12.3 3 Este 7 Sudeste 0 -- -- 76
2019-06-10 07:00:00 11.9 2 Este 8 Nordeste 0 -- -- 78
2019-06-10 06:00:00 11.6 3 Nordeste 10 Nordeste 0 -- -- 80
2019-06-10 05:00:00 10.8 2 Este 7 Norte 0 -- -- 82
2019-06-10 04:00:00 11.1 3 Norte 7 Norte 0 -- -- 80
2019-06-10 03:00:00 11.7 0 Calma 6 Noroeste 0 -- -- 79
2019-06-10 02:00:00 12.1 3 Norte 14 Norte 0 -- -- 79
2019-06-10 01:00:00 12.9 6 Nordeste 19 Este 0 -- -- 77
2019-06-10 00:00:00 14 9 Nordeste 22 Nordeste 0 -- -- 74
2019-06-09 23:00:00 16.1 7 Nordeste 22 Este 0 -- -- 66
2019-06-09 22:00:00 19.7 9 Nordeste 23 Nordeste 0 -- -- 54
2019-06-09 21:00:00 25 4 Sudoeste 15 Sudoeste 0 -- -- 23
2019-06-09 20:00:00 27 8 Oeste 22 Oeste 0 -- -- 20
2019-06-09 19:00:00 27.4 10 Oeste 30 Sudoeste 0 -- -- 19
2019-06-09 18:00:00 28 8 Oeste 33 Sudoeste 0 -- -- 20
2019-06-09 17:00:00 27.1 9 Sudoeste 25 Sudoeste 0 -- -- 23
2019-06-09 16:00:00 27.1 9 Sudoeste 27 Sudoeste 0 -- -- 22
2019-06-09 15:00:00 27.3 8 Noroeste 22 Oeste 0 -- -- 23
2019-06-09 14:00:00 26.3 12 Oeste 27 Sudoeste 0 -- -- 29
2019-06-09 13:00:00 25.7 6 Nordeste 20 Noroeste 0 -- -- 32
2019-06-09 12:00:00 24.2 8 Oeste 19 Oeste 0 -- -- 37
2019-06-09 11:00:00 22.9 2 Noroeste 10 Este 0 -- -- 39
2019-06-09 10:00:00 20.7 2 Nordeste 10 Sudeste 0 -- -- 41
2019-06-09 09:00:00 17.8 4 Sudeste 10 Este -- -- -- 45
2019-06-09 08:00:00 16.3 0 Calma 11 Sudeste 0 -- -- 49
2019-06-09 07:00:00 13.5 3 Este 9 Nordeste 0 -- -- 58
2019-06-09 06:00:00 14.6 4 Nordeste 10 Nordeste 0 -- -- 56
2019-06-09 05:00:00 16.2 0 Calma 6 Sur 0 -- -- 50
2019-06-09 04:00:00 16.8 0 Calma 15 Oeste 0 -- -- 46
2019-06-09 03:00:00 17.1 3 Noroeste 18 Sudeste 0 -- -- 44
2019-06-09 02:00:00 17.4 4 Noroeste 20 Sudeste 0 -- -- 45
2019-06-09 01:00:00 17.7 5 Este 21 Sur 0 -- -- 47
2019-06-09 00:00:00 18.1 6 Sudeste 27 Sudeste 0 -- -- 46
2019-06-08 23:00:00 18.8 9 Sur 30 Sur 0 -- -- 44
2019-06-08 22:00:00 20.3 10 Sudeste 32 Sudeste 0 -- -- 42
2019-06-08 21:00:00 22.4 8 Este 23 Sudeste 0 -- -- 38
2019-06-08 20:00:00 23.9 7 Este 32 Sur 0 -- -- 35
2019-06-08 19:00:00 25.9 8 Sudeste 27 Sur 0 -- -- 34
2019-06-08 18:00:00 27.2 6 Sudeste 23 Sudeste 0 -- -- 31
2019-06-08 17:00:00 27.2 7 Sudeste 24 Este -- -- -- 30
2019-06-08 16:00:00 26.7 8 Sudeste 41 Nordeste 0 -- -- 30
2019-06-08 15:00:00 24.6 9 Este 44 Nordeste 0 -- -- 34
2019-06-08 14:00:00 22.7 16 Nordeste 35 Nordeste 0 -- -- 37
2019-06-08 13:00:00 21.4 6 Nordeste 17 Sudeste 0 -- -- 39
2019-06-08 12:00:00 20.3 4 Sudoeste 11 Sudoeste 0 -- -- 35
2019-06-08 11:00:00 17.6 4 Oeste 11 Oeste 0 -- -- 42
2019-06-08 10:00:00 15 5 Sudoeste 9 Oeste 0 -- -- 48
2019-06-08 09:00:00 11.5 3 Oeste 6 Oeste 0 -- -- 59
2019-06-08 08:00:00 7.8 0 Calma 4 Sudeste 0 -- -- 73
2019-06-08 07:00:00 5.3 0 Calma 7 Nordeste 0 -- -- 79
2019-06-08 06:00:00 5.9 0 Calma 6 Nordeste 0 -- -- 77
2019-06-08 05:00:00 6.3 0 Calma 5 Nordeste 0 -- -- 75
2019-06-08 04:00:00 7 2 Este 6 Nordeste 0 -- -- 70
2019-06-08 03:00:00 8 0 Calma 3 Nordeste 0 -- -- 63
2019-06-08 02:00:00 8.3 0 Calma 7 Nordeste 0 -- -- 59
2019-06-08 01:00:00 9.4 3 Este 8 Este -- -- -- 56
2019-06-08 00:00:00 11.3 4 Nordeste 9 Nordeste 0 -- -- 50
2019-06-07 23:00:00 14.6 3 Nordeste 12 Noroeste 0 -- -- 40
2019-06-07 22:00:00 16 2 Norte 8 Nordeste 0 -- -- 36
2019-06-07 21:00:00 18.8 2 Norte 19 Norte 0 -- -- 30
2019-06-07 20:00:00 20.8 7 Norte 22 Norte 0 -- -- 28
2019-06-07 19:00:00 20.6 12 Oeste 27 Oeste 0 -- -- 27
2019-06-07 18:00:00 20.9 9 Oeste 26 Sudoeste 0 -- -- 27
2019-06-07 17:00:00 20.1 7 Oeste 23 Oeste 0 -- -- 29
2019-06-07 16:00:00 19.3 12 Oeste 27 Sudoeste 0 -- -- 31
2019-06-07 15:00:00 18 11 Oeste 30 Oeste 0 -- -- 34
2019-06-07 14:00:00 17 11 Noroeste 30 Oeste 0 -- -- 37
2019-06-07 13:00:00 16.1 10 Oeste 30 Oeste 0 -- -- 41
2019-06-07 12:00:00 15.3 12 Noroeste 28 Sudoeste 0 -- -- 45
2019-06-07 11:00:00 13.4 8 Noroeste 32 Oeste 0 -- -- 56
2019-06-07 10:00:00 10.6 10 Oeste 22 Oeste 0 -- -- 66
2019-06-07 09:00:00 9.1 4 Sudoeste 17 Sur 0.4 -- -- 82
2019-06-07 08:00:00 8.6 10 Oeste 31 Oeste 0.2 -- -- 84
2019-06-07 07:00:00 11.2 10 Oeste 29 Oeste 0 -- -- 69
2019-06-07 06:00:00 14.8 17 Sudoeste 31 Sudoeste 0 -- -- 58
2019-06-07 05:00:00 13.7 5 Oeste 24 Sudoeste 0 -- -- 69
2019-06-07 04:00:00 14.4 8 Oeste 25 Sudoeste 0 -- -- 69
2019-06-07 03:00:00 15 7 Oeste 18 Noroeste 0 -- -- 64
2019-06-07 02:00:00 15.6 6 Noroeste 21 Norte 0 -- -- 59
2019-06-07 01:00:00 15.8 6 Nordeste 27 Este 0 -- -- 53
2019-06-07 00:00:00 16.6 5 Nordeste 27 Sudeste 0 -- -- 49
2019-06-06 23:00:00 18.1 7 Noroeste 23 Este 0 -- -- 48
2019-06-06 22:00:00 19.7 8 Sudeste 23 Noroeste 0 -- -- 43
2019-06-06 21:00:00 21.7 6 Noroeste 32 Noroeste -- -- -- 38
2019-06-06 20:00:00 24.2 14 Oeste 39 Oeste 0 -- -- 23
2019-06-06 19:00:00 25 14 Oeste 37 Sudoeste 0 -- -- 24
2019-06-06 18:00:00 24.6 13 Oeste 37 Sudoeste 0 -- -- 22
2019-06-06 17:00:00 23.2 13 Oeste 27 Sudoeste -- -- -- 22
2019-06-06 16:00:00 23 11 Sudoeste 33 Oeste 0 -- -- 21
2019-06-06 15:00:00 22.7 12 Oeste 27 Oeste 0 -- -- 20
2019-06-06 14:00:00 22.6 9 Sudoeste 28 Oeste 0 -- -- 23
2019-06-06 13:00:00 21.2 9 Sudoeste 28 Sudoeste 0 -- -- 25
2019-06-06 12:00:00 19.4 15 Oeste 27 Oeste 0 -- -- 29
2019-06-06 11:00:00 17.5 4 Sur 12 Sudeste 0 -- -- 41
2019-06-06 10:00:00 14.3 3 Este 11 Sudeste 0 -- -- 55
2019-06-06 09:00:00 10.7 3 Oeste 7 Oeste 0 -- -- 73
2019-06-06 08:00:00 7.6 0 Calma 5 Nordeste 0 -- -- 82
2019-06-06 07:00:00 5.4 0 Calma 5 Nordeste 0 -- -- 86
2019-06-06 06:00:00 6.1 3 Nordeste 5 Este 0 -- -- 85
2019-06-06 05:00:00 7.4 0 Calma 6 Nordeste 0 -- -- 82
2019-06-06 04:00:00 8.6 0 Calma 7 Oeste 0 -- -- 82
2019-06-06 03:00:00 9.4 0 Calma 5 Sudeste 0 -- -- 78
2019-06-06 02:00:00 9.5 2 Sudeste 5 Sudeste 0 -- -- 78
2019-06-06 01:00:00 9.3 3 Nordeste 8 Nordeste 0 -- -- 78
2019-06-06 00:00:00 10.2 4 Nordeste 9 Nordeste 0 -- -- 74
2019-06-05 23:00:00 11.3 3 Nordeste 13 Nordeste 0 -- -- 69
2019-06-05 22:00:00 12.5 6 Nordeste 18 Norte 0 -- -- 69
2019-06-05 21:00:00 14.2 6 Nordeste 27 Norte 0 -- -- 58
2019-06-05 20:00:00 16.2 10 Nordeste 28 Nordeste 0 -- -- 54
2019-06-05 19:00:00 18 8 Norte 24 Norte 0 -- -- 43
2019-06-05 18:00:00 18.2 10 Noroeste 30 Noroeste 0 -- -- 38
2019-06-05 17:00:00 17.6 12 Oeste 32 Norte 0 -- -- 44
2019-06-05 16:00:00 15.9 8 Noroeste 31 Oeste 0 -- -- 47
2019-06-05 15:00:00 15.6 13 Noroeste 30 Noroeste 0 -- -- 47
2019-06-05 14:00:00 14 12 Oeste 38 Noroeste 0 -- -- 57
2019-06-05 13:00:00 13 16 Sudoeste 55 Oeste 0.4 -- -- 59
2019-06-05 12:00:00 14 14 Oeste 35 Noroeste 0.6 -- -- 69
2019-06-05 11:00:00 14.5 10 Oeste 27 Oeste 0 -- -- 65
2019-06-05 10:00:00 13.5 10 Sudoeste 32 Oeste 0 -- -- 72
2019-06-05 09:00:00 12.5 6 Oeste 35 Oeste 0.2 -- -- 76
2019-06-05 08:00:00 12.7 6 Nordeste 15 Este 0 -- -- 80
2019-06-05 07:00:00 12.3 0 Calma 9 Nordeste 0 -- -- 74
2019-06-05 06:00:00 12.5 3 Este 15 Nordeste 0 -- -- 73
2019-06-05 05:00:00 12.8 8 Nordeste 20 Nordeste 0 -- -- 73
2019-06-05 04:00:00 13.6 10 Nordeste 21 Nordeste 0 -- -- 73
2019-06-05 03:00:00 15 7 Nordeste 21 Nordeste 0 -- -- 71
2019-06-05 02:00:00 15.8 8 Nordeste 17 Norte 0 -- -- 67
2019-06-05 01:00:00 16.6 5 Nordeste 25 Nordeste 0 -- -- 65
2019-06-05 00:00:00 18.4 10 Norte 25 Nordeste 0 -- -- 58
2019-06-04 23:00:00 23 7 Nordeste 21 Sudoeste 0 -- -- 44
2019-06-04 22:00:00 25.4 11 Sudoeste 22 Sudoeste 0 -- -- 30
2019-06-04 21:00:00 26.9 13 Sudoeste 30 Sudoeste 0 -- -- 27
2019-06-04 20:00:00 27.8 16 Sudoeste 41 Sudoeste 0 -- -- 26
2019-06-04 19:00:00 30.2 14 Oeste 33 Oeste 0 -- -- 20
2019-06-04 18:00:00 29.2 14 Oeste 32 Sudoeste 0 -- -- 21
2019-06-04 17:00:00 29.7 14 Oeste 37 Sudoeste 0 -- -- 20
2019-06-04 16:00:00 30.4 12 Oeste 35 Sudoeste 0 -- -- 17
2019-06-04 15:00:00 30.3 11 Oeste 42 Sudoeste 0 -- -- 17
2019-06-04 14:00:00 29.5 15 Oeste 42 Sudoeste 0 -- -- 18
2019-06-04 13:00:00 28.4 20 Oeste 41 Sudoeste 0 -- -- 21
2019-06-04 12:00:00 27.9 13 Oeste 33 Oeste 0 -- -- 24
2019-06-04 11:00:00 25.8 3 Oeste 11 Sudoeste 0 -- -- 31
2019-06-04 10:00:00 23.9 3 Sudeste 13 Sudeste 0 -- -- 35
2019-06-04 09:00:00 20.9 2 Este 10 Sur 0 -- -- 41
2019-06-04 08:00:00 19 3 Sudoeste 18 Sudoeste 0 -- -- 43
2019-06-04 07:00:00 18.1 3 Oeste 14 Sudeste 0 -- -- 44
2019-06-04 06:00:00 17.7 2 Nordeste 13 Sudoeste 0 -- -- 49
2019-06-04 05:00:00 19 4 Sur 16 Sur 0 -- -- 44
2019-06-04 04:00:00 19.3 3 Norte 9 Norte 0 -- -- 44
2019-06-04 03:00:00 20.2 5 Sur 19 Sudeste 0 -- -- 43
2019-06-04 02:00:00 20.6 5 Sudeste 18 Sur 0 -- -- 42
2019-06-04 01:00:00 21.3 5 Noroeste 17 Sudeste 0 -- -- 42
2019-06-04 00:00:00 22.5 5 Sur 14 Sudeste 0 -- -- 40
2019-06-03 23:00:00 22.4 4 Nordeste 11 Norte 0 -- -- 36
2019-06-03 22:00:00 24 3 Este 13 Sudoeste 0 -- -- 30
2019-06-03 21:00:00 29.3 9 Sudoeste 22 Sudoeste 0 -- -- 17
2019-06-03 20:00:00 31.3 12 Sudoeste 29 Sudoeste 0 -- -- 17
2019-06-03 19:00:00 31.8 15 Oeste 32 Oeste 0 -- -- 17
2019-06-03 18:00:00 31.8 12 Oeste 33 Sudoeste 0 -- -- 18
2019-06-03 17:00:00 31.6 17 Oeste 37 Sudoeste 0 -- -- 19
2019-06-03 16:00:00 32.1 17 Sudoeste 40 Sudoeste 0 -- -- 19
2019-06-03 15:00:00 30.5 8 Noroeste 26 Sudoeste 0 -- -- 22
2019-06-03 14:00:00 29.9 9 Oeste 21 Oeste 0 -- -- 24
2019-06-03 13:00:00 29.7 4 Nordeste 10 Sudeste 0 -- -- 26
2019-06-03 12:00:00 27.2 2 Nordeste 14 Este 0 -- -- 31
2019-06-03 11:00:00 24.9 3 Este 8 Sur 0 -- -- 32
2019-06-03 10:00:00 23.7 3 Sur 14 Oeste 0 -- -- 34
2019-06-03 09:00:00 20.7 3 Norte 16 Sur 0 -- -- 39
2019-06-03 08:00:00 18 3 Nordeste 9 Oeste 0 -- -- 44
2019-06-03 07:00:00 17.1 0 Calma 13 Sudeste 0 -- -- 47
2019-06-03 06:00:00 18.1 4 Este 15 Sur 0 -- -- 42
2019-06-03 05:00:00 19.6 4 Este 19 Este 0 -- -- 39
2019-06-03 04:00:00 20.1 8 Sudeste 20 Sudeste 0 -- -- 38
2019-06-03 03:00:00 20.1 4 Sur 14 Sudeste 0 -- -- 38
2019-06-03 02:00:00 18.8 3 Nordeste 9 Nordeste 0 -- -- 47
2019-06-03 01:00:00 22.2 2 Sudeste 12 Sudoeste 0 -- -- 37
2019-06-03 00:00:00 23.3 4 Oeste 15 Sudeste 0 -- -- 35
2019-06-02 23:00:00 24.6 3 Sudeste 14 Sur 0 -- -- 33
2019-06-02 22:00:00 25.9 4 Nordeste 12 Nordeste 0 -- -- 31
2019-06-02 21:00:00 27.7 3 Este 15 Nordeste 0 -- -- 29
2019-06-02 20:00:00 30 6 Este 17 Este 0 -- -- 26
2019-06-02 19:00:00 32.1 6 Este 15 Este 0 -- -- 23
2019-06-02 18:00:00 31.6 7 Este 21 Nordeste 0 -- -- 20
2019-06-02 17:00:00 31.5 6 Norte 19 Nordeste 0 -- -- 20
2019-06-02 16:00:00 32 10 Oeste 23 Oeste 0 -- -- 19
2019-06-02 15:00:00 31.5 5 Sudoeste 20 Oeste 0 -- -- 22
2019-06-02 14:00:00 30.6 5 Noroeste 14 Noroeste 0 -- -- 23
2019-06-02 13:00:00 29.5 4 Este 11 Este 0 -- -- 26
2019-06-02 12:00:00 27.3 4 Noroeste 9 Noroeste 0 -- -- 30
2019-06-02 11:00:00 24.5 3 Oeste 10 Sudeste 0 -- -- 35
2019-06-02 10:00:00 21.1 4 Noroeste 9 Oeste 0 -- -- 39
2019-06-02 09:00:00 18.2 4 Noroeste 14 Sur 0 -- -- 43
2019-06-02 08:00:00 16 3 Noroeste 9 Norte 0 -- -- 47
2019-06-02 07:00:00 14.8 3 Nordeste 14 Nordeste 0 -- -- 53
2019-06-02 06:00:00 15.3 3 Este 12 Este 0 -- -- 54
2019-06-02 05:00:00 16.4 3 Este 12 Sudeste 0 -- -- 51
2019-06-02 04:00:00 16.2 3 Este 12 Norte 0 -- -- 53
2019-06-02 03:00:00 17.9 4 Este 17 Sur 0 -- -- 45
2019-06-02 02:00:00 18.5 0 Calma 7 Sudeste 0 -- -- 47
2019-06-02 01:00:00 19.7 3 Oeste 14 Sudeste 0 -- -- 43
2019-06-02 00:00:00 19.4 3 Este 9 Este 0 -- -- 46
2019-06-01 23:00:00 22.7 2 Este 11 Sudeste 0 -- -- 36
2019-06-01 22:00:00 24.1 3 Norte 17 Este 0 -- -- 32
2019-06-01 21:00:00 26.6 7 Nordeste 22 Este 0 -- -- 29
2019-06-01 20:00:00 28.9 8 Nordeste 22 Este 0 -- -- 29
2019-06-01 19:00:00 29.6 8 Este 23 Nordeste 0 -- -- 28
2019-06-01 18:00:00 30.7 7 Nordeste 20 Nordeste 0 -- -- 26
2019-06-01 17:00:00 30.7 9 Nordeste 20 Nordeste 0 -- -- 18
2019-06-01 16:00:00 30.5 6 Nordeste 19 Norte 0 -- -- 22
2019-06-01 15:00:00 29.7 6 Sur 16 Norte 0 -- -- 21
2019-06-01 14:00:00 28.4 4 Sudeste 16 Oeste 0 -- -- 25
2019-06-01 13:00:00 27 4 Nordeste 14 Sudeste 0 -- -- 29
2019-06-01 12:00:00 25.3 3 Sudoeste 11 Oeste 0 -- -- 31
2019-06-01 11:00:00 23.3 2 Este 9 Oeste 0 -- -- 40
2019-06-01 10:00:00 19.4 3 Noroeste 10 Oeste 0 -- -- 50
2019-06-01 09:00:00 16.5 3 Oeste 8 Sudoeste 0 -- -- 55
2019-06-01 08:00:00 13.7 3 Oeste 9 Oeste 0 -- -- 65
2019-06-01 07:00:00 12.3 2 Nordeste 7 Norte 0 -- -- 72
2019-06-01 06:00:00 12.7 2 Nordeste 9 Sudoeste 0 -- -- 71
2019-06-01 05:00:00 11.9 3 Este 8 Nordeste 0 -- -- 74
2019-06-01 04:00:00 14.1 3 Nordeste 9 Norte 0 -- -- 66
2019-06-01 03:00:00 12.5 0 Calma 6 Sudeste 0 -- -- 72
2019-06-01 02:00:00 12.7 3 Este 9 Nordeste 0 -- -- 69
2019-06-01 01:00:00 13.4 3 Este 6 Nordeste 0 -- -- 64
2019-06-01 00:00:00 15.7 3 Nordeste 7 Nordeste 0 -- -- 55
2019-05-31 23:00:00 18.2 0 Calma 7 Este 0 -- -- 45
2019-05-31 22:00:00 20.7 5 Nordeste 10 Este 0 -- -- 40
2019-05-31 21:00:00 24.2 8 Nordeste 15 Este 0 -- -- 30
2019-05-31 20:00:00 26.9 7 Nordeste 19 Nordeste 0 -- -- 22
2019-05-31 19:00:00 27.7 9 Nordeste 24 Nordeste 0 -- -- 24
2019-05-31 18:00:00 28.2 11 Nordeste 23 Nordeste 0 -- -- 30
2019-05-31 17:00:00 28.9 6 Nordeste 23 Nordeste 0 -- -- 26
2019-05-31 16:00:00 28.6 8 Este 20 Este 0 -- -- 23
2019-05-31 15:00:00 27.9 4 Nordeste 14 Noroeste 0 -- -- 24
2019-05-31 14:00:00 27.2 8 Nordeste 15 Nordeste 0 -- -- 25
2019-05-31 13:00:00 25.3 4 Sudoeste 11 Sudoeste 0 -- -- 27
2019-05-31 12:00:00 23.6 3 Nordeste 9 Sudoeste 0 -- -- 33
2019-05-31 11:00:00 20.5 3 Sudoeste 8 Oeste 0 -- -- 41
2019-05-31 10:00:00 17.4 3 Oeste 9 Oeste 0 -- -- 51
2019-05-31 09:00:00 13.6 0 Calma 4 Nordeste 0 -- -- 62
2019-05-31 08:00:00 9.6 0 Calma 6 Nordeste 0 -- -- 75
2019-05-31 07:00:00 6.6 3 Este 7 Nordeste 0 -- -- 83
2019-05-31 06:00:00 7 0 Calma 6 Nordeste 0 -- -- 82
2019-05-31 05:00:00 7.8 2 Este 5 Nordeste 0 -- -- 79
2019-05-31 04:00:00 8.6 0 Calma 6 Este 0 -- -- 77
2019-05-31 03:00:00 9.7 2 Nordeste 5 Sudeste 0 -- -- 74
2019-05-31 02:00:00 10.5 3 Este 8 Nordeste 0 -- -- 71
2019-05-31 01:00:00 11.9 2 Nordeste 7 Nordeste 0 -- -- 66
2019-05-31 00:00:00 13.3 3 Nordeste 7 Nordeste 0 -- -- 63
2019-05-30 23:00:00 15.1 2 Nordeste 9 Nordeste 0 -- -- 57
2019-05-30 22:00:00 18.5 2 Este 5 Este 0 -- -- 46
2019-05-30 21:00:00 23.1 0 Calma 15 Nordeste 0 -- -- 34
2019-05-30 20:00:00 24.9 8 Nordeste 20 Nordeste 0 -- -- 28
2019-05-30 19:00:00 25.7 7 Nordeste 24 Norte 0 -- -- 29
2019-05-30 18:00:00 25.6 8 Nordeste 24 Nordeste 0 -- -- 28
2019-05-30 17:00:00 25.9 8 Norte 28 Nordeste 0 -- -- 28
2019-05-30 16:00:00 25.8 7 Norte 26 Este 0 -- -- 27
2019-05-30 15:00:00 24.6 10 Nordeste 23 Noroeste 0 -- -- 28
2019-05-30 14:00:00 23.3 12 Nordeste 26 Nordeste 0 -- -- 31
2019-05-30 13:00:00 21.8 6 Norte 18 Sudoeste 0 -- -- 40
2019-05-30 12:00:00 19.5 7 Oeste 15 Sudoeste 0 -- -- 45
2019-05-30 11:00:00 16.7 5 Oeste 10 Sudoeste 0 -- -- 50
2019-05-30 10:00:00 14.6 0 Calma 8 Noroeste 0 -- -- 57
2019-05-30 09:00:00 11 4 Noroeste 6 Oeste 0 -- -- 70
2019-05-30 08:00:00 8.1 0 Calma 5 Este 0 -- -- 79
2019-05-30 07:00:00 5.9 0 Calma 5 Norte 0 -- -- 84
2019-05-30 06:00:00 6.4 0 Calma 7 Nordeste 0 -- -- 82
2019-05-30 05:00:00 7.6 0 Calma 6 Nordeste 0 -- -- 78
2019-05-30 04:00:00 9.2 2 Este 8 Sur 0 -- -- 73
2019-05-30 03:00:00 10.3 3 Este 9 Nordeste 0 -- -- 69
2019-05-30 02:00:00 11.2 4 Sudoeste 12 Sudeste 0 -- -- 64
2019-05-30 01:00:00 12.7 2 Norte 15 Sur 0 -- -- 59
2019-05-30 00:00:00 13.8 5 Norte 22 Nordeste 0 -- -- 55
2019-05-29 23:00:00 13.9 13 Nordeste 31 Nordeste 0 -- -- 55
2019-05-29 22:00:00 15 8 Norte 33 Nordeste 0 -- -- 51
2019-05-29 21:00:00 16.1 14 Nordeste 32 Nordeste 0 -- -- 48
2019-05-29 20:00:00 18.4 9 Nordeste 27 Nordeste 0 -- -- 44
2019-05-29 19:00:00 19.7 13 Noroeste 36 Noroeste 0 -- -- 41
2019-05-29 18:00:00 19.7 14 Norte 32 Nordeste 0 -- -- 39
2019-05-29 17:00:00 20.1 8 Norte 31 Nordeste 0 -- -- 39
2019-05-29 16:00:00 19.3 12 Nordeste 32 Norte 0 -- -- 39
2019-05-29 15:00:00 18.9 10 Norte 35 Oeste 0 -- -- 39
2019-05-29 14:00:00 17.3 13 Noroeste 39 Noroeste 0 -- -- 42
2019-05-29 13:00:00 16.5 13 Norte 42 Noroeste 0 -- -- 43
2019-05-29 12:00:00 15.3 12 Norte 36 Norte 0 -- -- 47
2019-05-29 11:00:00 13.9 7 Norte 27 Norte 0 -- -- 57
2019-05-29 10:00:00 12.5 10 Norte 28 Noroeste 0 -- -- 59
2019-05-29 09:00:00 10.6 2 Sudoeste 9 Sudoeste 0 -- -- 61
2019-05-29 08:00:00 7.9 3 Oeste 7 Sudoeste 0 -- -- 69
2019-05-29 07:00:00 5.5 2 Oeste 12 Este 0 -- -- 78
2019-05-29 06:00:00 5.5 2 Este 8 Nordeste 0 -- -- 77
2019-05-29 05:00:00 6.4 2 Este 7 Este 0 -- -- 73
2019-05-29 04:00:00 7.2 0 Calma 6 Norte 0 -- -- 70
2019-05-29 03:00:00 8.4 2 Este 12 Nordeste 0 -- -- 65
2019-05-29 02:00:00 9.1 3 Nordeste 14 Nordeste 0 -- -- 61
2019-05-29 01:00:00 9.5 5 Nordeste 16 Nordeste 0 -- -- 62
2019-05-29 00:00:00 10.2 7 Nordeste 18 Nordeste 0 -- -- 62
2019-05-28 23:00:00 10.7 5 Norte 19 Norte 0 -- -- 61
2019-05-28 22:00:00 11.8 8 Nordeste 31 Nordeste 0 -- -- 58
2019-05-28 21:00:00 13.5 10 Nordeste 28 Nordeste 0 -- -- 51
2019-05-28 20:00:00 15.6 13 Norte 34 Nordeste 0 -- -- 47
2019-05-28 19:00:00 16.9 13 Norte 36 Norte 0 -- -- 44
2019-05-28 18:00:00 18.2 12 Norte 35 Norte 0 -- -- 41
2019-05-28 17:00:00 18.8 13 Norte 30 Norte 0 -- -- 41
2019-05-28 16:00:00 18.6 14 Norte 47 Este 0 -- -- 42
2019-05-28 15:00:00 18.1 9 Norte 28 Norte 0 -- -- 40
2019-05-28 14:00:00 17.6 6 Norte 22 Nordeste 0 -- -- 40
2019-05-28 13:00:00 16.3 9 Norte 23 Nordeste 0 -- -- 45
2019-05-28 12:00:00 15 5 Nordeste 19 Oeste 0 -- -- 48
2019-05-28 11:00:00 13.4 5 Nordeste 15 Nordeste 0 -- -- 55
2019-05-28 10:00:00 11.5 4 Norte 15 Norte 0 -- -- 63
2019-05-28 09:00:00 10.7 3 Nordeste 15 Noroeste 0 -- -- 63
2019-05-28 08:00:00 9 2 Oeste 5 Oeste 0 -- -- 75
2019-05-28 07:00:00 7.3 0 Calma 7 Norte 0 -- -- 83
2019-05-28 06:00:00 7.8 0 Calma 5 Oeste 0 -- -- 83
2019-05-28 05:00:00 7.8 0 Calma 5 Sudeste 0 -- -- 81
2019-05-28 04:00:00 8.6 3 Nordeste 9 Sur 0 -- -- 80
2019-05-28 03:00:00 9.6 0 Calma 8 Este 0 -- -- 76
2019-05-28 02:00:00 10.7 4 Nordeste 20 Nordeste 0 -- -- 72
2019-05-28 01:00:00 11.9 8 Norte 18 Norte 0 -- -- 71
2019-05-28 00:00:00 13.6 5 Norte 24 Norte 0 -- -- 64
2019-05-27 23:00:00 14.7 13 Nordeste 26 Norte 0 -- -- 66
2019-05-27 22:00:00 15.7 8 Norte 29 Nordeste 0 -- -- 65
2019-05-27 21:00:00 16.8 9 Nordeste 35 Nordeste 0 -- -- 59
2019-05-27 20:00:00 18.8 14 Nordeste 33 Norte 0 -- -- 52
2019-05-27 19:00:00 19.9 18 Nordeste 38 Norte 0 -- -- 50
2019-05-27 18:00:00 21.1 17 Nordeste 39 Norte 0 -- -- 46
2019-05-27 17:00:00 23 11 Nordeste 27 Norte 0 -- -- 41
2019-05-27 16:00:00 23 12 Nordeste 31 Nordeste 0 -- -- 40
2019-05-27 15:00:00 22.5 10 Norte 28 Nordeste 0 -- -- 39
2019-05-27 14:00:00 21.7 6 Sudoeste 24 Oeste 0 -- -- 40
2019-05-27 13:00:00 19.9 6 Noroeste 21 Noroeste 0 -- -- 44
2019-05-27 12:00:00 18.4 6 Norte 20 Sudoeste 0 -- -- 52
2019-05-27 11:00:00 16.5 8 Sudoeste 19 Sudoeste 0 -- -- 57
2019-05-27 10:00:00 13.4 2 Sur 9 Oeste 0 -- -- 72
2019-05-27 09:00:00 10.5 0 Calma 4 Este 0 -- -- 80
2019-05-27 08:00:00 7.1 0 Calma 6 Este 0 -- -- 89
2019-05-27 07:00:00 5.5 0 Calma 7 Este 0 -- -- 91
2019-05-27 06:00:00 5.7 0 Calma 5 Nordeste 0 -- -- 90
2019-05-27 05:00:00 6.1 0 Calma 6 Nordeste 0 -- -- 89
2019-05-27 04:00:00 6.9 0 Calma 6 Nordeste -- -- -- 88
2019-05-27 03:00:00 7.7 4 Nordeste 8 Norte 0 -- -- 87
2019-05-27 02:00:00 8.8 0 Calma 6 Sudeste 0 -- -- 84
2019-05-27 01:00:00 10.1 0 Calma 4 Sur 0 -- -- 78
2019-05-27 00:00:00 11.4 0 Calma 7 Norte 0 -- -- 74
2019-05-26 23:00:00 12.4 4 Norte 13 Nordeste 0 -- -- 69
2019-05-26 22:00:00 13.8 7 Nordeste 26 Nordeste 0 -- -- 63
2019-05-26 21:00:00 15.2 13 Nordeste 28 Nordeste 0 -- -- 58
2019-05-26 20:00:00 17.2 14 Nordeste 28 Norte 0 -- -- 51
2019-05-26 19:00:00 18.3 15 Nordeste 31 Nordeste 0 -- -- 47
2019-05-26 18:00:00 18.7 15 Nordeste 33 Nordeste 0 -- -- 47
2019-05-26 17:00:00 19.2 13 Nordeste 33 Este 0 -- -- 46
2019-05-26 16:00:00 18.7 9 Norte 24 Nordeste 0 -- -- 47
2019-05-26 15:00:00 18.5 8 Norte 30 Nordeste 0 -- -- 47
2019-05-26 14:00:00 17.3 10 Norte 31 Norte 0 -- -- 50
2019-05-26 13:00:00 15.9 10 Norte 25 Norte 0 -- -- 52
2019-05-26 12:00:00 14.3 6 Noroeste 17 Nordeste 0 -- -- 56
2019-05-26 11:00:00 12.8 8 Nordeste 23 Norte 0 -- -- 61
2019-05-26 10:00:00 11.3 4 Oeste 14 Oeste 0 -- -- 66
2019-05-26 09:00:00 9.9 3 Oeste 8 Sudoeste 0 -- -- 70
2019-05-26 08:00:00 8.7 2 Oeste 9 Sudoeste 0 -- -- 72
2019-05-26 07:00:00 7.3 2 Nordeste 11 Nordeste 0 -- -- 79
2019-05-26 06:00:00 8.7 6 Nordeste 14 Norte 0 -- -- 71
2019-05-26 05:00:00 9.1 8 Norte 20 Nordeste 0 -- -- 71
2019-05-26 04:00:00 8.8 3 Nordeste 15 Noroeste 0 -- -- 76
2019-05-26 03:00:00 9.4 8 Norte 15 Nordeste 0 -- -- 76
2019-05-26 02:00:00 9.3 8 Norte 22 Nordeste 0 -- -- 77
2019-05-26 01:00:00 10.3 3 Nordeste 15 Norte 0 -- -- 72
2019-05-26 00:00:00 11.1 2 Norte 18 Noroeste 0 -- -- 73
2019-05-25 23:00:00 12.2 7 Noroeste 20 Norte 0 -- -- 67
2019-05-25 22:00:00 13.1 7 Norte 21 Norte 0 -- -- 66
2019-05-25 21:00:00 14.3 9 Nordeste 32 Nordeste 0 -- -- 63
2019-05-25 20:00:00 15.8 10 Nordeste 31 Nordeste 0 -- -- 57
2019-05-25 19:00:00 17.7 12 Nordeste 30 Nordeste 0 -- -- 51
2019-05-25 18:00:00 18.4 16 Nordeste 38 Nordeste 0 -- -- 49
2019-05-25 17:00:00 18.5 14 Nordeste 32 Nordeste 0 -- -- 49
2019-05-25 16:00:00 18.2 11 Norte 31 Nordeste 0 -- -- 50
2019-05-25 15:00:00 17 13 Nordeste 32 Nordeste 0 -- -- 54
2019-05-25 14:00:00 16.2 13 Norte 35 Norte 0 -- -- 56
2019-05-25 13:00:00 14.7 10 Nordeste 28 Norte 0 -- -- 59
2019-05-25 12:00:00 13.9 12 Nordeste 36 Nordeste 0 -- -- 64
2019-05-25 11:00:00 13.5 11 Norte 26 Noroeste 0 -- -- 65
2019-05-25 10:00:00 11.4 7 Norte 21 Nordeste 0 -- -- 72
2019-05-25 09:00:00 11.2 8 Nordeste 21 Nordeste 0 -- -- 72
2019-05-25 08:00:00 10.8 9 Norte 22 Norte 0 -- -- 71
2019-05-25 07:00:00 10.6 5 Norte 18 Nordeste 0 -- -- 72
2019-05-25 06:00:00 10.8 7 Norte 18 Nordeste 0 -- -- 72
2019-05-25 05:00:00 10.8 5 Nordeste 16 Nordeste 0 -- -- 72
2019-05-25 04:00:00 10.2 3 Nordeste 20 Norte 0 -- -- 75
2019-05-25 03:00:00 11 10 Norte 23 Noroeste 0 -- -- 74
2019-05-25 02:00:00 11.4 4 Nordeste 17 Oeste 0 -- -- 74
2019-05-25 01:00:00 11.7 6 Norte 21 Nordeste 0 -- -- 73
2019-05-25 00:00:00 11.6 8 Norte 26 Nordeste 0 -- -- 73
2019-05-24 23:00:00 11.7 4 Nordeste 18 Oeste 0 -- -- 73
2019-05-24 22:00:00 12.1 7 Noroeste 16 Noroeste 0 -- -- 73
2019-05-24 21:00:00 12.8 8 Norte 23 Norte 0 -- -- 70
2019-05-24 20:00:00 13.7 15 Nordeste 33 Nordeste 0 -- -- 66
2019-05-24 19:00:00 14.4 9 Norte 41 Este 0 -- -- 68
2019-05-24 18:00:00 15.6 15 Nordeste 35 Norte 0 -- -- 62
2019-05-24 17:00:00 16.3 10 Norte 29 Norte 0 -- -- 64
2019-05-24 16:00:00 13.8 8 Nordeste 18 Norte 0 -- -- 70
2019-05-24 15:00:00 13.3 7 Norte 21 Nordeste 0 -- -- 74
2019-05-24 14:00:00 12.9 9 Norte 29 Norte 0 -- -- 75
2019-05-24 13:00:00 12.1 9 Nordeste 25 Nordeste 0 -- -- 82
2019-05-24 12:00:00 11.3 5 Nordeste 16 Nordeste 0.2 -- -- 89
2019-05-24 11:00:00 10.4 6 Norte 20 Noroeste 3.4 -- -- 92
2019-05-24 10:00:00 10.6 5 Norte 17 Norte 1 -- -- 90
2019-05-24 09:00:00 11 6 Norte 20 Norte 0 -- -- 87
2019-05-24 08:00:00 11.1 5 Nordeste 12 Norte 1 -- -- 87
2019-05-24 07:00:00 11.7 5 Norte 14 Nordeste 0.2 -- -- 87
2019-05-24 06:00:00 11.7 3 Este 12 Este 0 -- -- 86
2019-05-24 05:00:00 11.5 5 Nordeste 17 Norte 0 -- -- 89
2019-05-24 04:00:00 12.1 8 Nordeste 17 Nordeste 0 -- -- 85
2019-05-24 03:00:00 12.9 5 Nordeste 21 Nordeste 0 -- -- 85
2019-05-24 02:00:00 13.6 6 Nordeste 18 Nordeste 0 -- -- 83
2019-05-24 01:00:00 14.6 4 Oeste 10 Nordeste 0 -- -- 79
2019-05-24 00:00:00 15.1 2 Nordeste 16 Este 0.2 -- -- 81
2019-05-23 23:00:00 15.7 6 Noroeste 13 Nordeste 0.2 -- -- 79
2019-05-23 22:00:00 16.4 10 Noroeste 20 Noroeste 0 -- -- 73
2019-05-23 21:00:00 18 8 Nordeste 22 Noroeste 0 -- -- 71
2019-05-23 20:00:00 21 8 Nordeste 22 Norte 0 -- -- 46
2019-05-23 19:00:00 22.1 10 Nordeste 32 Norte 0 -- -- 44
2019-05-23 18:00:00 24.2 12 Nordeste 27 Nordeste 0 -- -- 40
2019-05-23 17:00:00 24.5 3 Sur 9 Sudoeste 0 -- -- 32
2019-05-23 16:00:00 24.9 0 Calma 6 Sudeste 0 -- -- 33
2019-05-23 15:00:00 24.4 0 Calma 12 Nordeste 0 -- -- 33
2019-05-23 14:00:00 25.2 4 Este 10 Nordeste 0 -- -- 32
2019-05-23 13:00:00 23.3 3 Oeste 7 Oeste 0 -- -- 35
2019-05-23 12:00:00 20.7 3 Oeste 8 Oeste 0 -- -- 56
2019-05-23 11:00:00 18.2 5 Oeste 10 Oeste 0 -- -- 64
2019-05-23 10:00:00 15.8 2 Noroeste 8 Oeste 0 -- -- 72
2019-05-23 09:00:00 13.2 0 Calma 6 Nordeste 0 -- -- 75
2019-05-23 08:00:00 11.7 4 Oeste 8 Oeste 0 -- -- 78
2019-05-23 07:00:00 9.2 0 Calma 4 Sudeste 0 -- -- 82
2019-05-23 06:00:00 8.7 0 Calma 6 Nordeste 0 -- -- 81
2019-05-23 05:00:00 8.7 2 Este 6 Nordeste 0 -- -- 80
2019-05-23 04:00:00 9.5 0 Calma 6 Norte 0 -- -- 78
2019-05-23 03:00:00 10.1 3 Nordeste 7 Nordeste 0 -- -- 77
2019-05-23 02:00:00 11 2 Nordeste 8 Este 0 -- -- 74
2019-05-23 01:00:00 12.2 0 Calma 8 Este 0 -- -- 69
2019-05-23 00:00:00 13.9 4 Nordeste 8 Norte 0 -- -- 63
2019-05-22 23:00:00 16.3 0 Calma 9 Nordeste 0 -- -- 52
2019-05-22 22:00:00 17.7 3 Este 19 Nordeste 0 -- -- 49
2019-05-22 21:00:00 19.9 9 Nordeste 24 Norte 0 -- -- 42
2019-05-22 20:00:00 22.5 9 Nordeste 24 Nordeste 0 -- -- 39
2019-05-22 19:00:00 23.5 9 Nordeste 23 Este 0 -- -- 35
2019-05-22 18:00:00 24.6 10 Nordeste 23 Nordeste 0 -- -- 33
2019-05-22 17:00:00 25 9 Nordeste 26 Nordeste 0 -- -- 31
2019-05-22 16:00:00 24 8 Oeste 20 Oeste 0 -- -- 30
2019-05-22 15:00:00 23.3 8 Sudoeste 25 Oeste 0 -- -- 32
2019-05-22 14:00:00 22.5 8 Norte 20 Sudoeste 0 -- -- 34
2019-05-22 13:00:00 21.4 10 Sudoeste 21 Sudoeste 0 -- -- 36
2019-05-22 12:00:00 19.5 4 Oeste 10 Sudoeste 0 -- -- 49
2019-05-22 11:00:00 16.7 2 Noroeste 9 Noroeste 0 -- -- 55
2019-05-22 10:00:00 13.2 4 Oeste 8 Noroeste 0 -- -- 68
2019-05-22 09:00:00 9.7 0 Calma 7 Oeste 0 -- -- 77
2019-05-22 08:00:00 6.7 0 Calma 4 Este 0 -- -- 85
2019-05-22 07:00:00 5 0 Calma 4 Nordeste 0 -- -- 88
2019-05-22 06:00:00 5.6 0 Calma 4 Este 0 -- -- 86
2019-05-22 05:00:00 6 3 Nordeste 7 Este 0 -- -- 85
2019-05-22 04:00:00 6.6 0 Calma 6 Nordeste 0 -- -- 83
2019-05-22 03:00:00 7.4 0 Calma 7 Nordeste 0 -- -- 81
2019-05-22 02:00:00 8.2 3 Nordeste 6 Este 0 -- -- 79
2019-05-22 01:00:00 9.5 3 Nordeste 9 Nordeste 0 -- -- 73
2019-05-22 00:00:00 11.5 3 Este 5 Nordeste 0 -- -- 63
2019-05-21 23:00:00 13.2 0 Calma 6 Este 0 -- -- 54
2019-05-21 22:00:00 14.6 4 Este 16 Nordeste 0 -- -- 44
2019-05-21 21:00:00 16.8 8 Nordeste 17 Norte 0 -- -- 38
2019-05-21 20:00:00 18.3 6 Nordeste 22 Nordeste 0 -- -- 36
2019-05-21 19:00:00 19.9 9 Nordeste 23 Nordeste 0 -- -- 30
2019-05-21 18:00:00 19.8 10 Nordeste 24 Norte 0 -- -- 36
2019-05-21 17:00:00 20.9 8 Nordeste 27 Este 0 -- -- 39
2019-05-21 16:00:00 20.5 10 Nordeste 24 Nordeste 0 -- -- 38
2019-05-21 15:00:00 19.9 9 Nordeste 27 Nordeste 0 -- -- 38
2019-05-21 14:00:00 19 7 Nordeste 22 Nordeste 0 -- -- 37
2019-05-21 13:00:00 18.1 6 Nordeste 17 Nordeste 0 -- -- 39
2019-05-21 12:00:00 17 6 Nordeste 15 Nordeste 0 -- -- 39
2019-05-21 11:00:00 14.5 2 Este 10 Nordeste 0 -- -- 51
2019-05-21 10:00:00 12.6 3 Nordeste 10 Este 0 -- -- 57
2019-05-21 09:00:00 8.3 0 Calma 3 Oeste 0 -- -- 80
2019-05-21 08:00:00 5.7 0 Calma 5 Nordeste 0 -- -- 89
2019-05-21 07:00:00 4.3 0 Calma 5 Nordeste 0 -- -- 89
2019-05-21 06:00:00 4.8 0 Calma 5 Nordeste 0 -- -- 89
2019-05-21 05:00:00 5.4 0 Calma 8 Este 0 -- -- 87
2019-05-21 04:00:00 6 0 Calma 6 Nordeste 0 -- -- 86
2019-05-21 03:00:00 7.2 0 Calma 6 Nordeste 0 -- -- 82
2019-05-21 02:00:00 8.3 0 Calma 5 Sudeste 0 -- -- 79
2019-05-21 01:00:00 8.9 0 Calma 5 Nordeste 0 -- -- 76
2019-05-21 00:00:00 10 0 Calma 5 Nordeste 0 -- -- 72
2019-05-20 23:00:00 11.5 0 Calma 10 Norte 0 -- -- 67
2019-05-20 22:00:00 12.8 5 Nordeste 15 Norte 0 -- -- 61
2019-05-20 21:00:00 15 7 Nordeste 25 Nordeste 0 -- -- 55
2019-05-20 20:00:00 17 9 Nordeste 23 Nordeste 0 -- -- 47
2019-05-20 19:00:00 18.1 10 Nordeste 26 Nordeste 0 -- -- 41
2019-05-20 18:00:00 19.9 9 Nordeste 21 Norte 0 -- -- 32
2019-05-20 17:00:00 20.1 5 Sudoeste 23 Oeste 0 -- -- 32
2019-05-20 16:00:00 19.3 4 Este 20 Sudoeste 0 -- -- 36
2019-05-20 15:00:00 17.7 5 Noroeste 24 Noroeste 0 -- -- 37
2019-05-20 14:00:00 16.9 10 Noroeste 26 Sudoeste 0 -- -- 36
2019-05-20 13:00:00 15.6 6 Oeste 16 Sudoeste -- -- -- 48
2019-05-20 12:00:00 13.9 5 Sudoeste 14 Sudoeste 0 -- -- 55
2019-05-20 11:00:00 11.8 3 Oeste 9 Oeste 0 -- -- 66
2019-05-20 10:00:00 9.2 2 Noroeste 5 Oeste 0 -- -- 78
2019-05-20 09:00:00 5.7 3 Oeste 5 Oeste 0 -- -- 88
2019-05-20 08:00:00 3.4 0 Calma 5 Nordeste 0 -- -- 95
2019-05-20 07:00:00 2 0 Calma 4 Nordeste 0 -- -- 94
2019-05-20 06:00:00 2.3 0 Calma 5 Nordeste 0 -- -- 94
2019-05-20 05:00:00 2.7 3 Nordeste 6 Este 0 -- -- 94
2019-05-20 04:00:00 3.2 3 Nordeste 5 Nordeste 0 -- -- 93
2019-05-20 03:00:00 3.7 0 Calma 6 Este 0 -- -- 93
2019-05-20 02:00:00 4.4 2 Este 7 Este 0 -- -- 92
2019-05-20 01:00:00 5.1 3 Nordeste 8 Norte 0 -- -- 91
2019-05-20 00:00:00 6.1 3 Nordeste 8 Nordeste 0 -- -- 89
2019-05-19 23:00:00 7.4 3 Nordeste 8 Nordeste 0 -- -- 86
2019-05-19 22:00:00 9.1 3 Nordeste 10 Nordeste 0 -- -- 79
2019-05-19 21:00:00 10.9 5 Nordeste 17 Nordeste 0 -- -- 73
2019-05-19 20:00:00 13.1 5 Norte 19 Nordeste 0 -- -- 67
2019-05-19 19:00:00 12.2 5 Este 16 Nordeste 0 -- -- 75
2019-05-19 18:00:00 11.1 3 Nordeste 22 Nordeste 1.6 -- -- 80
2019-05-19 17:00:00 13.2 3 Nordeste 19 Nordeste 0.2 -- -- 75
2019-05-19 16:00:00 11.9 8 Norte 24 Nordeste 0.6 -- -- 73
2019-05-19 15:00:00 14.3 8 Norte 20 Sudoeste 0.2 -- -- 55
2019-05-19 14:00:00 12.7 7 Norte 31 Sudoeste 0 -- -- 60
2019-05-19 13:00:00 12.6 6 Norte 22 Oeste 0 -- -- 59
2019-05-19 12:00:00 11.4 7 Oeste 21 Sudoeste 0 -- -- 61
2019-05-19 11:00:00 10 7 Oeste 20 Sudoeste 0 -- -- 69
2019-05-19 10:00:00 9.2 3 Sudoeste 10 Sudoeste 0 -- -- 78
2019-05-19 09:00:00 6.4 0 Calma 5 Sudoeste 0 -- -- 89
2019-05-19 08:00:00 5 3 Oeste 8 Sudoeste 0 -- -- 93
2019-05-19 07:00:00 4.4 0 Calma 6 Oeste 0 -- -- 95
2019-05-19 06:00:00 3.7 3 Nordeste 5 Nordeste 0 -- -- 97
2019-05-19 05:00:00 3.7 2 Este 7 Este 0 -- -- 95
2019-05-19 04:00:00 4.7 0 Calma 3 Sur 0 -- -- 93
2019-05-19 03:00:00 5.2 0 Calma 8 Sudoeste 0 -- -- 93
2019-05-19 02:00:00 5.5 3 Norte 7 Norte 0 -- -- 93
2019-05-19 01:00:00 5.3 2 Nordeste 6 Nordeste 0 -- -- 92
2019-05-19 00:00:00 6 2 Nordeste 8 Nordeste 0 -- -- 92
2019-05-18 23:00:00 6.8 2 Nordeste 5 Nordeste 0 -- -- 90
2019-05-18 22:00:00 7.6 0 Calma 22 Nordeste 0 -- -- 84
2019-05-18 21:00:00 8.9 12 Nordeste 24 Norte 1 -- -- 82
2019-05-18 20:00:00 10.5 4 Nordeste 17 Nordeste 0 -- -- 69
2019-05-18 19:00:00 11.1 7 Nordeste 24 Noroeste 0 -- -- 71
2019-05-18 18:00:00 12.7 12 Nordeste 36 Noroeste 0 -- -- 62
2019-05-18 17:00:00 14.8 5 Noroeste 24 Oeste 0 -- -- 44
2019-05-18 16:00:00 14.2 14 Oeste 31 Oeste 0 -- -- 42
2019-05-18 15:00:00 14.2 13 Oeste 30 Oeste 0 -- -- 41
2019-05-18 14:00:00 13.8 15 Oeste 32 Sudoeste 0 -- -- 40
2019-05-18 13:00:00 13 10 Sudoeste 34 Sudoeste 0 -- -- 47
2019-05-18 12:00:00 11.4 11 Oeste 25 Sudoeste 0 -- -- 56
2019-05-18 11:00:00 9.5 6 Oeste 16 Noroeste 0 -- -- 74
2019-05-18 10:00:00 7.9 0 Calma 5 Sudoeste 0 -- -- 84
2019-05-18 09:00:00 6.9 3 Oeste 8 Sudoeste 0.4 -- -- 85
2019-05-18 08:00:00 6.5 0 Calma 5 Sudeste 0.2 -- -- 90
2019-05-18 07:00:00 5.7 3 Sudeste 7 Sudoeste 0 -- -- 93
2019-05-18 06:00:00 5.7 2 Sudeste 6 Sur 0 -- -- 92
2019-05-18 05:00:00 5.8 0 Calma 4 Nordeste 0 -- -- 93
2019-05-18 04:00:00 5.8 0 Calma 6 Sur 0 -- -- 91
2019-05-18 03:00:00 5.9 3 Este 6 Este 0 -- -- 91
2019-05-18 02:00:00 5.3 0 Calma 8 Este 0 -- -- 91
2019-05-18 01:00:00 5.3 0 Calma 8 Nordeste 0 -- -- 90
2019-05-18 00:00:00 5.8 3 Nordeste 9 Este 0 -- -- 88
2019-05-17 23:00:00 7.2 3 Nordeste 8 Nordeste 0 -- -- 83
2019-05-17 22:00:00 9.1 3 Nordeste 11 Noroeste 0 -- -- 72
2019-05-17 21:00:00 9.9 4 Nordeste 9 Nordeste 0 -- -- 75
2019-05-17 20:00:00 9.9 4 Nordeste 9 Nordeste 0 -- -- 74
2019-05-17 19:00:00 10.1 3 Nordeste 13 Norte 0 -- -- 74
2019-05-17 18:00:00 11.1 6 Norte 16 Nordeste 0 -- -- 66
2019-05-17 17:00:00 11.1 5 Noroeste 27 Sur 0 -- -- 67
2019-05-17 16:00:00 11.6 6 Oeste 20 Noroeste 0 -- -- 65
2019-05-17 15:00:00 10.3 6 Noroeste 23 Sur 0.2 -- -- 70
2019-05-17 14:00:00 9.7 5 Noroeste 24 Oeste 0.2 -- -- 80
2019-05-17 13:00:00 10.1 9 Oeste 36 Sudoeste 0 -- -- 75
2019-05-17 12:00:00 9.5 13 Oeste 39 Sudoeste 0 -- -- 77
2019-05-17 11:00:00 8.8 13 Sudoeste 40 Oeste 0 -- -- 80
2019-05-17 10:00:00 8.3 12 Oeste 32 Noroeste 0.4 -- -- 84
2019-05-17 09:00:00 7.7 10 Sudoeste 23 Sudoeste 2.2 -- -- 91
2019-05-17 08:00:00 7.3 10 Sudoeste 27 Sudoeste 2.2 -- -- 91
2019-05-17 07:00:00 7.1 7 Oeste 26 Sudoeste 3.2 -- -- 91
2019-05-17 06:00:00 7.4 9 Oeste 28 Oeste 0.4 -- -- 89
2019-05-17 05:00:00 8.2 13 Oeste 31 Sudoeste 0 -- -- 84
2019-05-17 04:00:00 8.1 4 Sudoeste 23 Sudoeste 0.2 -- -- 88
2019-05-17 03:00:00 8.5 8 Sudoeste 52 Oeste 3.6 -- -- 89
2019-05-17 02:00:00 8.9 19 Sudoeste 68 Noroeste 7 -- -- 93
2019-05-17 01:00:00 12.8 8 Nordeste 27 Este 0 -- -- 87
2019-05-17 00:00:00 14.3 6 Nordeste 21 Nordeste 0.2 -- -- 83